sensor_id;sensor_type;location;lat;lon;timestamp;P1;durP1;ratioP1;P2;durP2;ratioP2
4525;SDS011;2275;52.208;8.804;2022-08-21T00:00:26;14.32;;;7.07;;
4525;SDS011;2275;52.208;8.804;2022-08-21T00:02:55;12.93;;;7.40;;
4525;SDS011;2275;52.208;8.804;2022-08-21T00:05:21;13.07;;;6.60;;
4525;SDS011;2275;52.208;8.804;2022-08-21T00:07:49;11.60;;;6.75;;
4525;SDS011;2275;52.208;8.804;2022-08-21T00:10:17;10.13;;;6.20;;
4525;SDS011;2275;52.208;8.804;2022-08-21T00:12:45;12.23;;;6.07;;
4525;SDS011;2275;52.208;8.804;2022-08-21T00:15:14;12.50;;;5.95;;
4525;SDS011;2275;52.208;8.804;2022-08-21T00:17:39;10.43;;;5.37;;
4525;SDS011;2275;52.208;8.804;2022-08-21T00:20:07;11.80;;;6.70;;
4525;SDS011;2275;52.208;8.804;2022-08-21T00:22:35;11.90;;;6.45;;
4525;SDS011;2275;52.208;8.804;2022-08-21T00:25:03;15.20;;;6.72;;
4525;SDS011;2275;52.208;8.804;2022-08-21T00:27:33;8.98;;;5.60;;
4525;SDS011;2275;52.208;8.804;2022-08-21T00:30:00;13.45;;;6.90;;
4525;SDS011;2275;52.208;8.804;2022-08-21T00:32:27;10.52;;;7.00;;
4525;SDS011;2275;52.208;8.804;2022-08-21T00:34:55;12.25;;;6.82;;
4525;SDS011;2275;52.208;8.804;2022-08-21T00:37:23;14.35;;;6.30;;
4525;SDS011;2275;52.208;8.804;2022-08-21T00:39:50;12.45;;;6.22;;
4525;SDS011;2275;52.208;8.804;2022-08-21T00:42:18;8.68;;;5.75;;
4525;SDS011;2275;52.208;8.804;2022-08-21T00:44:47;9.98;;;5.85;;
4525;SDS011;2275;52.208;8.804;2022-08-21T00:47:15;12.23;;;6.20;;
4525;SDS011;2275;52.208;8.804;2022-08-21T00:49:41;8.63;;;5.37;;
4525;SDS011;2275;52.208;8.804;2022-08-21T00:52:11;10.20;;;5.68;;
4525;SDS011;2275;52.208;8.804;2022-08-21T00:54:37;11.50;;;5.78;;
4525;SDS011;2275;52.208;8.804;2022-08-21T00:57:08;8.93;;;5.32;;
4525;SDS011;2275;52.208;8.804;2022-08-21T00:59:33;12.70;;;5.62;;
4525;SDS011;2275;52.208;8.804;2022-08-21T01:02:00;9.18;;;5.10;;
4525;SDS011;2275;52.208;8.804;2022-08-21T01:04:27;11.80;;;5.93;;
4525;SDS011;2275;52.208;8.804;2022-08-21T01:06:55;8.95;;;4.93;;
4525;SDS011;2275;52.208;8.804;2022-08-21T01:09:23;11.38;;;5.40;;
4525;SDS011;2275;52.208;8.804;2022-08-21T01:11:50;9.25;;;5.00;;
4525;SDS011;2275;52.208;8.804;2022-08-21T01:14:18;7.90;;;5.00;;
4525;SDS011;2275;52.208;8.804;2022-08-21T01:16:46;7.37;;;5.53;;
4525;SDS011;2275;52.208;8.804;2022-08-21T01:19:12;10.30;;;5.30;;
4525;SDS011;2275;52.208;8.804;2022-08-21T01:21:39;16.23;;;5.70;;
4525;SDS011;2275;52.208;8.804;2022-08-21T01:24:06;9.13;;;5.15;;
4525;SDS011;2275;52.208;8.804;2022-08-21T01:26:34;10.20;;;5.18;;
4525;SDS011;2275;52.208;8.804;2022-08-21T01:29:10;8.77;;;5.18;;
4525;SDS011;2275;52.208;8.804;2022-08-21T01:31:38;15.00;;;5.15;;
4525;SDS011;2275;52.208;8.804;2022-08-21T01:34:06;9.50;;;5.10;;
4525;SDS011;2275;52.208;8.804;2022-08-21T01:36:34;12.52;;;5.78;;
4525;SDS011;2275;52.208;8.804;2022-08-21T01:39:02;9.82;;;4.95;;
4525;SDS011;2275;52.208;8.804;2022-08-21T01:41:28;9.00;;;5.28;;
4525;SDS011;2275;52.208;8.804;2022-08-21T01:43:55;12.10;;;5.20;;
4525;SDS011;2275;52.208;8.804;2022-08-21T01:46:22;10.55;;;5.28;;
4525;SDS011;2275;52.208;8.804;2022-08-21T01:48:50;8.63;;;4.95;;
4525;SDS011;2275;52.208;8.804;2022-08-21T01:51:17;9.82;;;5.55;;
4525;SDS011;2275;52.208;8.804;2022-08-21T01:53:44;11.12;;;5.57;;
4525;SDS011;2275;52.208;8.804;2022-08-21T01:56:12;10.20;;;5.00;;
4525;SDS011;2275;52.208;8.804;2022-08-21T01:58:40;11.43;;;5.75;;
4525;SDS011;2275;52.208;8.804;2022-08-21T02:01:07;12.10;;;5.70;;
4525;SDS011;2275;52.208;8.804;2022-08-21T02:03:34;12.80;;;6.45;;
4525;SDS011;2275;52.208;8.804;2022-08-21T02:06:02;8.40;;;5.30;;
4525;SDS011;2275;52.208;8.804;2022-08-21T02:08:30;10.38;;;5.70;;
4525;SDS011;2275;52.208;8.804;2022-08-21T02:10:58;11.43;;;6.22;;
4525;SDS011;2275;52.208;8.804;2022-08-21T02:13:25;12.70;;;6.05;;
4525;SDS011;2275;52.208;8.804;2022-08-21T02:15:54;10.18;;;5.55;;
4525;SDS011;2275;52.208;8.804;2022-08-21T02:18:21;10.27;;;5.65;;
4525;SDS011;2275;52.208;8.804;2022-08-21T02:20:48;12.02;;;6.07;;
4525;SDS011;2275;52.208;8.804;2022-08-21T02:23:15;12.05;;;5.47;;
4525;SDS011;2275;52.208;8.804;2022-08-21T02:25:42;13.40;;;5.10;;
4525;SDS011;2275;52.208;8.804;2022-08-21T02:28:10;7.97;;;5.00;;
4525;SDS011;2275;52.208;8.804;2022-08-21T02:30:39;8.52;;;5.65;;
4525;SDS011;2275;52.208;8.804;2022-08-21T02:33:04;12.15;;;5.68;;
4525;SDS011;2275;52.208;8.804;2022-08-21T02:35:31;15.80;;;6.50;;
4525;SDS011;2275;52.208;8.804;2022-08-21T02:38:00;11.65;;;5.70;;
4525;SDS011;2275;52.208;8.804;2022-08-21T02:40:28;9.75;;;5.80;;
4525;SDS011;2275;52.208;8.804;2022-08-21T02:42:53;8.90;;;5.12;;
4525;SDS011;2275;52.208;8.804;2022-08-21T02:45:21;11.12;;;6.12;;
4525;SDS011;2275;52.208;8.804;2022-08-21T02:47:49;14.98;;;6.40;;
4525;SDS011;2275;52.208;8.804;2022-08-21T02:50:18;13.20;;;6.60;;
4525;SDS011;2275;52.208;8.804;2022-08-21T02:52:46;10.80;;;6.03;;
4525;SDS011;2275;52.208;8.804;2022-08-21T02:55:14;13.77;;;6.00;;
4525;SDS011;2275;52.208;8.804;2022-08-21T02:57:41;17.15;;;6.37;;
4525;SDS011;2275;52.208;8.804;2022-08-21T03:00:09;10.32;;;6.07;;
4525;SDS011;2275;52.208;8.804;2022-08-21T03:02:37;9.65;;;5.90;;
4525;SDS011;2275;52.208;8.804;2022-08-21T03:05:05;11.95;;;6.07;;
4525;SDS011;2275;52.208;8.804;2022-08-21T03:07:33;12.18;;;5.47;;
4525;SDS011;2275;52.208;8.804;2022-08-21T03:10:01;13.68;;;5.80;;
4525;SDS011;2275;52.208;8.804;2022-08-21T03:12:28;13.73;;;6.00;;
4525;SDS011;2275;52.208;8.804;2022-08-21T03:14:57;10.52;;;5.25;;
4525;SDS011;2275;52.208;8.804;2022-08-21T03:17:24;11.30;;;5.35;;
4525;SDS011;2275;52.208;8.804;2022-08-21T03:19:51;11.88;;;5.85;;
4525;SDS011;2275;52.208;8.804;2022-08-21T03:22:18;11.35;;;5.82;;
4525;SDS011;2275;52.208;8.804;2022-08-21T03:24:45;9.85;;;5.43;;
4525;SDS011;2275;52.208;8.804;2022-08-21T03:27:13;10.50;;;5.57;;
4525;SDS011;2275;52.208;8.804;2022-08-21T03:29:40;11.55;;;5.43;;
4525;SDS011;2275;52.208;8.804;2022-08-21T03:32:07;9.85;;;4.80;;
4525;SDS011;2275;52.208;8.804;2022-08-21T03:34:35;8.77;;;4.65;;
4525;SDS011;2275;52.208;8.804;2022-08-21T03:37:05;8.45;;;4.53;;
4525;SDS011;2275;52.208;8.804;2022-08-21T03:39:30;9.63;;;5.07;;
4525;SDS011;2275;52.208;8.804;2022-08-21T03:41:57;13.23;;;4.90;;
4525;SDS011;2275;52.208;8.804;2022-08-21T03:44:25;11.48;;;5.37;;
4525;SDS011;2275;52.208;8.804;2022-08-21T03:46:52;9.07;;;4.82;;
4525;SDS011;2275;52.208;8.804;2022-08-21T03:49:19;10.32;;;4.90;;
4525;SDS011;2275;52.208;8.804;2022-08-21T03:51:47;13.57;;;5.10;;
4525;SDS011;2275;52.208;8.804;2022-08-21T03:54:15;10.38;;;5.55;;
4525;SDS011;2275;52.208;8.804;2022-08-21T03:56:43;7.55;;;4.93;;
4525;SDS011;2275;52.208;8.804;2022-08-21T03:59:10;8.35;;;5.45;;
4525;SDS011;2275;52.208;8.804;2022-08-21T04:01:38;11.93;;;6.00;;
4525;SDS011;2275;52.208;8.804;2022-08-21T04:04:06;9.65;;;6.12;;
4525;SDS011;2275;52.208;8.804;2022-08-21T04:06:33;11.05;;;6.20;;
4525;SDS011;2275;52.208;8.804;2022-08-21T04:09:00;13.77;;;6.22;;
4525;SDS011;2275;52.208;8.804;2022-08-21T04:11:28;9.05;;;5.50;;
4525;SDS011;2275;52.208;8.804;2022-08-21T04:13:55;10.70;;;5.28;;
4525;SDS011;2275;52.208;8.804;2022-08-21T04:16:22;10.00;;;6.40;;
4525;SDS011;2275;52.208;8.804;2022-08-21T04:18:50;12.73;;;5.68;;
4525;SDS011;2275;52.208;8.804;2022-08-21T04:21:17;10.60;;;5.60;;
4525;SDS011;2275;52.208;8.804;2022-08-21T04:23:44;12.63;;;5.68;;
4525;SDS011;2275;52.208;8.804;2022-08-21T04:26:11;8.50;;;5.35;;
4525;SDS011;2275;52.208;8.804;2022-08-21T04:28:38;13.38;;;5.82;;
4525;SDS011;2275;52.208;8.804;2022-08-21T04:31:05;11.15;;;5.68;;
4525;SDS011;2275;52.208;8.804;2022-08-21T04:33:33;11.12;;;5.60;;
4525;SDS011;2275;52.208;8.804;2022-08-21T04:36:01;9.02;;;6.05;;
4525;SDS011;2275;52.208;8.804;2022-08-21T04:38:29;10.05;;;5.25;;
4525;SDS011;2275;52.208;8.804;2022-08-21T04:40:57;10.43;;;5.30;;
4525;SDS011;2275;52.208;8.804;2022-08-21T04:43:24;13.20;;;5.62;;
4525;SDS011;2275;52.208;8.804;2022-08-21T04:45:52;9.75;;;5.47;;
4525;SDS011;2275;52.208;8.804;2022-08-21T04:48:20;8.88;;;5.37;;
4525;SDS011;2275;52.208;8.804;2022-08-21T04:50:49;12.30;;;6.10;;
4525;SDS011;2275;52.208;8.804;2022-08-21T04:53:33;10.27;;;5.80;;
4525;SDS011;2275;52.208;8.804;2022-08-21T04:56:02;10.10;;;5.82;;
4525;SDS011;2275;52.208;8.804;2022-08-21T04:58:29;9.52;;;5.57;;
4525;SDS011;2275;52.208;8.804;2022-08-21T05:00:57;12.70;;;6.15;;
4525;SDS011;2275;52.208;8.804;2022-08-21T05:03:24;14.50;;;7.25;;
4525;SDS011;2275;52.208;8.804;2022-08-21T05:05:51;9.32;;;5.85;;
4525;SDS011;2275;52.208;8.804;2022-08-21T05:08:19;12.70;;;6.70;;
4525;SDS011;2275;52.208;8.804;2022-08-21T05:10:46;10.57;;;6.50;;
4525;SDS011;2275;52.208;8.804;2022-08-21T05:13:13;11.55;;;6.15;;
4525;SDS011;2275;52.208;8.804;2022-08-21T05:15:40;12.10;;;7.22;;
4525;SDS011;2275;52.208;8.804;2022-08-21T05:18:07;9.48;;;6.03;;
4525;SDS011;2275;52.208;8.804;2022-08-21T05:20:35;10.93;;;6.95;;
4525;SDS011;2275;52.208;8.804;2022-08-21T05:23:06;11.27;;;6.10;;
4525;SDS011;2275;52.208;8.804;2022-08-21T05:25:32;9.80;;;6.50;;
4525;SDS011;2275;52.208;8.804;2022-08-21T05:27:59;17.87;;;6.97;;
4525;SDS011;2275;52.208;8.804;2022-08-21T05:30:26;12.50;;;7.20;;
4525;SDS011;2275;52.208;8.804;2022-08-21T05:32:56;12.52;;;6.68;;
4525;SDS011;2275;52.208;8.804;2022-08-21T05:35:24;11.52;;;6.07;;
4525;SDS011;2275;52.208;8.804;2022-08-21T05:37:52;12.20;;;7.28;;
4525;SDS011;2275;52.208;8.804;2022-08-21T05:40:20;13.13;;;6.47;;
4525;SDS011;2275;52.208;8.804;2022-08-21T05:42:47;11.80;;;6.28;;
4525;SDS011;2275;52.208;8.804;2022-08-21T05:45:15;11.70;;;6.85;;
4525;SDS011;2275;52.208;8.804;2022-08-21T05:47:42;11.82;;;7.15;;
4525;SDS011;2275;52.208;8.804;2022-08-21T05:50:10;17.40;;;7.57;;
4525;SDS011;2275;52.208;8.804;2022-08-21T05:52:37;18.05;;;7.00;;
4525;SDS011;2275;52.208;8.804;2022-08-21T05:55:05;14.50;;;6.90;;
4525;SDS011;2275;52.208;8.804;2022-08-21T05:57:32;12.65;;;7.22;;
4525;SDS011;2275;52.208;8.804;2022-08-21T06:00:00;10.85;;;7.28;;
4525;SDS011;2275;52.208;8.804;2022-08-21T06:02:27;14.70;;;7.90;;
4525;SDS011;2275;52.208;8.804;2022-08-21T06:04:55;16.60;;;8.27;;
4525;SDS011;2275;52.208;8.804;2022-08-21T06:07:21;12.63;;;8.20;;
4525;SDS011;2275;52.208;8.804;2022-08-21T06:09:48;14.60;;;7.60;;
4525;SDS011;2275;52.208;8.804;2022-08-21T06:12:16;11.82;;;8.13;;
4525;SDS011;2275;52.208;8.804;2022-08-21T06:14:44;14.52;;;8.35;;
4525;SDS011;2275;52.208;8.804;2022-08-21T06:17:11;17.00;;;9.48;;
4525;SDS011;2275;52.208;8.804;2022-08-21T06:19:38;13.55;;;8.30;;
4525;SDS011;2275;52.208;8.804;2022-08-21T06:22:06;18.37;;;9.20;;
4525;SDS011;2275;52.208;8.804;2022-08-21T06:24:33;14.32;;;8.10;;
4525;SDS011;2275;52.208;8.804;2022-08-21T06:27:05;16.75;;;8.45;;
4525;SDS011;2275;52.208;8.804;2022-08-21T06:29:33;17.33;;;9.90;;
4525;SDS011;2275;52.208;8.804;2022-08-21T06:32:01;14.82;;;9.10;;
4525;SDS011;2275;52.208;8.804;2022-08-21T06:34:30;18.37;;;9.40;;
4525;SDS011;2275;52.208;8.804;2022-08-21T06:36:57;13.32;;;8.40;;
4525;SDS011;2275;52.208;8.804;2022-08-21T06:39:25;19.05;;;8.77;;
4525;SDS011;2275;52.208;8.804;2022-08-21T06:41:54;13.38;;;8.68;;
4525;SDS011;2275;52.208;8.804;2022-08-21T06:44:21;16.25;;;10.15;;
4525;SDS011;2275;52.208;8.804;2022-08-21T06:46:49;15.82;;;9.10;;
4525;SDS011;2275;52.208;8.804;2022-08-21T06:49:16;13.27;;;10.00;;
4525;SDS011;2275;52.208;8.804;2022-08-21T06:51:44;20.75;;;9.80;;
4525;SDS011;2275;52.208;8.804;2022-08-21T06:54:11;12.57;;;8.40;;
4525;SDS011;2275;52.208;8.804;2022-08-21T06:56:39;14.27;;;9.00;;
4525;SDS011;2275;52.208;8.804;2022-08-21T06:59:07;16.30;;;9.60;;
4525;SDS011;2275;52.208;8.804;2022-08-21T07:01:34;15.32;;;9.25;;
4525;SDS011;2275;52.208;8.804;2022-08-21T07:04:02;16.58;;;8.88;;
4525;SDS011;2275;52.208;8.804;2022-08-21T07:06:29;16.85;;;8.75;;
4525;SDS011;2275;52.208;8.804;2022-08-21T07:08:56;12.80;;;8.65;;
4525;SDS011;2275;52.208;8.804;2022-08-21T07:11:24;14.07;;;8.43;;
4525;SDS011;2275;52.208;8.804;2022-08-21T07:13:51;13.40;;;7.82;;
4525;SDS011;2275;52.208;8.804;2022-08-21T07:16:19;12.40;;;7.78;;
4525;SDS011;2275;52.208;8.804;2022-08-21T07:18:47;13.88;;;7.57;;
4525;SDS011;2275;52.208;8.804;2022-08-21T07:21:14;12.60;;;8.27;;
4525;SDS011;2275;52.208;8.804;2022-08-21T07:23:42;12.00;;;7.60;;
4525;SDS011;2275;52.208;8.804;2022-08-21T07:26:09;9.52;;;7.55;;
4525;SDS011;2275;52.208;8.804;2022-08-21T07:28:36;14.90;;;8.10;;
4525;SDS011;2275;52.208;8.804;2022-08-21T07:31:04;19.00;;;8.83;;
4525;SDS011;2275;52.208;8.804;2022-08-21T07:33:31;11.98;;;7.78;;
4525;SDS011;2275;52.208;8.804;2022-08-21T07:35:59;13.20;;;7.60;;
4525;SDS011;2275;52.208;8.804;2022-08-21T07:38:26;13.27;;;7.93;;
4525;SDS011;2275;52.208;8.804;2022-08-21T07:40:54;11.83;;;6.90;;
4525;SDS011;2275;52.208;8.804;2022-08-21T07:43:20;10.80;;;6.87;;
4525;SDS011;2275;52.208;8.804;2022-08-21T07:45:47;14.33;;;7.77;;
4525;SDS011;2275;52.208;8.804;2022-08-21T07:48:15;13.73;;;7.17;;
4525;SDS011;2275;52.208;8.804;2022-08-21T07:50:42;14.10;;;7.00;;
4525;SDS011;2275;52.208;8.804;2022-08-21T07:53:09;14.57;;;6.27;;
4525;SDS011;2275;52.208;8.804;2022-08-21T07:55:36;10.87;;;5.70;;
4525;SDS011;2275;52.208;8.804;2022-08-21T07:58:04;8.27;;;3.90;;
4525;SDS011;2275;52.208;8.804;2022-08-21T08:00:30;9.07;;;5.07;;
4525;SDS011;2275;52.208;8.804;2022-08-21T08:02:58;10.33;;;4.07;;
4525;SDS011;2275;52.208;8.804;2022-08-21T08:05:26;11.30;;;4.53;;
4525;SDS011;2275;52.208;8.804;2022-08-21T08:07:52;10.27;;;4.23;;
4525;SDS011;2275;52.208;8.804;2022-08-21T08:10:20;9.40;;;3.73;;
4525;SDS011;2275;52.208;8.804;2022-08-21T08:12:47;9.33;;;4.87;;
4525;SDS011;2275;52.208;8.804;2022-08-21T08:15:15;7.43;;;3.70;;
4525;SDS011;2275;52.208;8.804;2022-08-21T08:17:42;9.07;;;3.60;;
4525;SDS011;2275;52.208;8.804;2022-08-21T08:20:10;7.60;;;3.77;;
4525;SDS011;2275;52.208;8.804;2022-08-21T08:22:37;11.47;;;4.33;;
4525;SDS011;2275;52.208;8.804;2022-08-21T08:25:05;13.00;;;4.87;;
4525;SDS011;2275;52.208;8.804;2022-08-21T08:27:33;8.63;;;3.27;;
4525;SDS011;2275;52.208;8.804;2022-08-21T08:30:00;7.33;;;3.20;;
4525;SDS011;2275;52.208;8.804;2022-08-21T08:32:28;7.80;;;3.37;;
4525;SDS011;2275;52.208;8.804;2022-08-21T08:34:55;6.80;;;3.20;;
4525;SDS011;2275;52.208;8.804;2022-08-21T08:37:22;7.57;;;3.73;;
4525;SDS011;2275;52.208;8.804;2022-08-21T08:39:50;8.30;;;3.40;;
4525;SDS011;2275;52.208;8.804;2022-08-21T08:42:20;7.73;;;3.90;;
4525;SDS011;2275;52.208;8.804;2022-08-21T08:44:47;10.27;;;3.70;;
4525;SDS011;2275;52.208;8.804;2022-08-21T08:47:16;9.13;;;3.13;;
4525;SDS011;2275;52.208;8.804;2022-08-21T08:49:49;5.70;;;3.17;;
4525;SDS011;2275;52.208;8.804;2022-08-21T08:52:18;9.63;;;3.17;;
4525;SDS011;2275;52.208;8.804;2022-08-21T08:54:48;12.10;;;2.70;;
4525;SDS011;2275;52.208;8.804;2022-08-21T08:57:16;7.07;;;3.63;;
4525;SDS011;2275;52.208;8.804;2022-08-21T08:59:43;12.63;;;5.50;;
4525;SDS011;2275;52.208;8.804;2022-08-21T09:02:11;7.67;;;4.90;;
4525;SDS011;2275;52.208;8.804;2022-08-21T09:04:38;8.17;;;4.27;;
4525;SDS011;2275;52.208;8.804;2022-08-21T09:07:11;7.10;;;3.20;;
4525;SDS011;2275;52.208;8.804;2022-08-21T09:09:45;8.73;;;3.60;;
4525;SDS011;2275;52.208;8.804;2022-08-21T09:15:16;9.63;;;3.77;;
4525;SDS011;2275;52.208;8.804;2022-08-21T09:17:54;14.03;;;4.27;;
4525;SDS011;2275;52.208;8.804;2022-08-21T09:20:35;5.03;;;3.20;;
4525;SDS011;2275;52.208;8.804;2022-08-21T09:25:55;7.60;;;3.67;;
4525;SDS011;2275;52.208;8.804;2022-08-21T09:28:23;8.33;;;3.63;;
4525;SDS011;2275;52.208;8.804;2022-08-21T09:30:50;10.23;;;3.43;;
4525;SDS011;2275;52.208;8.804;2022-08-21T09:33:17;7.13;;;2.87;;
4525;SDS011;2275;52.208;8.804;2022-08-21T09:38:28;6.60;;;3.17;;
4525;SDS011;2275;52.208;8.804;2022-08-21T09:40:57;7.47;;;2.53;;
4525;SDS011;2275;52.208;8.804;2022-08-21T09:43:23;8.43;;;3.43;;
4525;SDS011;2275;52.208;8.804;2022-08-21T09:46:01;7.30;;;3.87;;
4525;SDS011;2275;52.208;8.804;2022-08-21T09:48:24;10.10;;;4.17;;
4525;SDS011;2275;52.208;8.804;2022-08-21T09:50:51;14.27;;;7.27;;
4525;SDS011;2275;52.208;8.804;2022-08-21T09:53:19;8.10;;;3.90;;
4525;SDS011;2275;52.208;8.804;2022-08-21T09:55:51;5.90;;;3.23;;
4525;SDS011;2275;52.208;8.804;2022-08-21T09:58:30;5.70;;;2.70;;
4525;SDS011;2275;52.208;8.804;2022-08-21T10:00:57;9.57;;;3.03;;
4525;SDS011;2275;52.208;8.804;2022-08-21T10:03:25;10.40;;;3.20;;
4525;SDS011;2275;52.208;8.804;2022-08-21T10:06:02;7.30;;;2.90;;
4525;SDS011;2275;52.208;8.804;2022-08-21T10:08:30;6.90;;;3.17;;
4525;SDS011;2275;52.208;8.804;2022-08-21T10:11:01;6.10;;;3.23;;
4525;SDS011;2275;52.208;8.804;2022-08-21T10:13:30;8.87;;;3.97;;
4525;SDS011;2275;52.208;8.804;2022-08-21T10:16:04;11.63;;;3.60;;
4525;SDS011;2275;52.208;8.804;2022-08-21T10:18:28;6.80;;;3.57;;
4525;SDS011;2275;52.208;8.804;2022-08-21T10:20:58;8.33;;;3.20;;
4525;SDS011;2275;52.208;8.804;2022-08-21T10:23:39;8.53;;;2.90;;
4525;SDS011;2275;52.208;8.804;2022-08-21T10:26:18;6.50;;;2.93;;
4525;SDS011;2275;52.208;8.804;2022-08-21T10:28:47;8.50;;;2.93;;
4525;SDS011;2275;52.208;8.804;2022-08-21T10:31:43;5.60;;;2.80;;
4525;SDS011;2275;52.208;8.804;2022-08-21T10:34:10;5.43;;;2.97;;
4525;SDS011;2275;52.208;8.804;2022-08-21T10:36:39;7.07;;;3.27;;
4525;SDS011;2275;52.208;8.804;2022-08-21T10:39:08;8.70;;;2.90;;
4525;SDS011;2275;52.208;8.804;2022-08-21T10:41:44;6.30;;;2.90;;
4525;SDS011;2275;52.208;8.804;2022-08-21T10:44:23;8.93;;;3.63;;
4525;SDS011;2275;52.208;8.804;2022-08-21T10:50:47;8.10;;;2.97;;
4525;SDS011;2275;52.208;8.804;2022-08-21T10:52:36;7.00;;;2.80;;
4525;SDS011;2275;52.208;8.804;2022-08-21T10:55:14;5.90;;;3.00;;
4525;SDS011;2275;52.208;8.804;2022-08-21T10:57:49;7.07;;;3.40;;
4525;SDS011;2275;52.208;8.804;2022-08-21T11:00:29;9.77;;;4.07;;
4525;SDS011;2275;52.208;8.804;2022-08-21T11:03:12;6.83;;;3.10;;
4525;SDS011;2275;52.208;8.804;2022-08-21T11:05:40;8.00;;;3.40;;
4525;SDS011;2275;52.208;8.804;2022-08-21T11:08:10;7.50;;;3.80;;
4525;SDS011;2275;52.208;8.804;2022-08-21T11:10:40;8.63;;;3.30;;
4525;SDS011;2275;52.208;8.804;2022-08-21T11:13:07;10.53;;;4.80;;
4525;SDS011;2275;52.208;8.804;2022-08-21T11:15:51;7.93;;;5.00;;
4525;SDS011;2275;52.208;8.804;2022-08-21T11:23:33;6.93;;;4.00;;
4525;SDS011;2275;52.208;8.804;2022-08-21T11:26:02;5.97;;;4.80;;
4525;SDS011;2275;52.208;8.804;2022-08-21T11:28:32;6.67;;;4.80;;
4525;SDS011;2275;52.208;8.804;2022-08-21T11:36:38;9.00;;;4.90;;
4525;SDS011;2275;52.208;8.804;2022-08-21T11:39:18;7.20;;;4.90;;
4525;SDS011;2275;52.208;8.804;2022-08-21T11:41:56;15.23;;;12.07;;
4525;SDS011;2275;52.208;8.804;2022-08-21T11:44:24;8.73;;;5.40;;
4525;SDS011;2275;52.208;8.804;2022-08-21T11:46:53;12.53;;;5.83;;
4525;SDS011;2275;52.208;8.804;2022-08-21T11:49:44;8.20;;;4.70;;
4525;SDS011;2275;52.208;8.804;2022-08-21T11:52:20;6.47;;;4.70;;
4525;SDS011;2275;52.208;8.804;2022-08-21T11:54:59;10.30;;;4.77;;
4525;SDS011;2275;52.208;8.804;2022-08-21T11:57:29;7.33;;;4.00;;
4525;SDS011;2275;52.208;8.804;2022-08-21T12:00:12;7.17;;;5.03;;
4525;SDS011;2275;52.208;8.804;2022-08-21T12:02:54;8.13;;;4.47;;
4525;SDS011;2275;52.208;8.804;2022-08-21T12:05:25;5.77;;;4.10;;
4525;SDS011;2275;52.208;8.804;2022-08-21T12:07:59;8.10;;;4.63;;
4525;SDS011;2275;52.208;8.804;2022-08-21T12:10:18;8.97;;;5.37;;
4525;SDS011;2275;52.208;8.804;2022-08-21T12:12:46;9.00;;;5.40;;
4525;SDS011;2275;52.208;8.804;2022-08-21T12:15:24;6.87;;;3.53;;
4525;SDS011;2275;52.208;8.804;2022-08-21T12:20:36;8.83;;;5.07;;
4525;SDS011;2275;52.208;8.804;2022-08-21T12:23:18;7.33;;;3.80;;
4525;SDS011;2275;52.208;8.804;2022-08-21T12:25:46;5.57;;;3.57;;
4525;SDS011;2275;52.208;8.804;2022-08-21T12:28:13;7.43;;;5.00;;
4525;SDS011;2275;52.208;8.804;2022-08-21T12:30:41;6.07;;;3.83;;
4525;SDS011;2275;52.208;8.804;2022-08-21T12:35:51;5.73;;;3.33;;
4525;SDS011;2275;52.208;8.804;2022-08-21T12:38:19;6.87;;;4.13;;
4525;SDS011;2275;52.208;8.804;2022-08-21T12:40:50;6.17;;;3.90;;
4525;SDS011;2275;52.208;8.804;2022-08-21T12:43:18;7.17;;;4.07;;
4525;SDS011;2275;52.208;8.804;2022-08-21T12:45:46;6.07;;;3.80;;
4525;SDS011;2275;52.208;8.804;2022-08-21T12:48:17;8.03;;;4.40;;
4525;SDS011;2275;52.208;8.804;2022-08-21T12:50:58;6.37;;;3.60;;
4525;SDS011;2275;52.208;8.804;2022-08-21T12:53:26;6.57;;;4.07;;
4525;SDS011;2275;52.208;8.804;2022-08-21T12:56:00;7.10;;;3.90;;
4525;SDS011;2275;52.208;8.804;2022-08-21T12:58:25;5.87;;;4.03;;
4525;SDS011;2275;52.208;8.804;2022-08-21T13:00:56;10.50;;;4.23;;
4525;SDS011;2275;52.208;8.804;2022-08-21T13:03:29;4.73;;;3.47;;
4525;SDS011;2275;52.208;8.804;2022-08-21T13:05:56;11.27;;;4.40;;
4525;SDS011;2275;52.208;8.804;2022-08-21T13:08:23;5.60;;;4.53;;
4525;SDS011;2275;52.208;8.804;2022-08-21T13:10:55;6.30;;;4.33;;
4525;SDS011;2275;52.208;8.804;2022-08-21T13:13:19;9.03;;;4.90;;
4525;SDS011;2275;52.208;8.804;2022-08-21T13:15:45;7.80;;;4.20;;
4525;SDS011;2275;52.208;8.804;2022-08-21T13:18:21;11.67;;;5.23;;
4525;SDS011;2275;52.208;8.804;2022-08-21T13:20:48;8.90;;;4.33;;
4525;SDS011;2275;52.208;8.804;2022-08-21T13:23:24;8.20;;;4.70;;
4525;SDS011;2275;52.208;8.804;2022-08-21T13:25:53;5.50;;;3.50;;
4525;SDS011;2275;52.208;8.804;2022-08-21T13:28:19;11.63;;;6.30;;
4525;SDS011;2275;52.208;8.804;2022-08-21T13:30:50;6.27;;;4.73;;
4525;SDS011;2275;52.208;8.804;2022-08-21T13:33:19;5.10;;;3.80;;
4525;SDS011;2275;52.208;8.804;2022-08-21T13:35:50;7.73;;;3.77;;
4525;SDS011;2275;52.208;8.804;2022-08-21T13:38:17;7.93;;;4.33;;
4525;SDS011;2275;52.208;8.804;2022-08-21T13:40:46;6.37;;;4.00;;
4525;SDS011;2275;52.208;8.804;2022-08-21T13:43:12;7.87;;;4.13;;
4525;SDS011;2275;52.208;8.804;2022-08-21T13:45:42;13.17;;;3.77;;
4525;SDS011;2275;52.208;8.804;2022-08-21T13:48:08;14.07;;;8.60;;
4525;SDS011;2275;52.208;8.804;2022-08-21T13:50:38;7.87;;;4.70;;
4525;SDS011;2275;52.208;8.804;2022-08-21T13:53:06;7.50;;;4.13;;
4525;SDS011;2275;52.208;8.804;2022-08-21T13:55:36;7.73;;;4.30;;
4525;SDS011;2275;52.208;8.804;2022-08-21T13:58:03;8.53;;;4.33;;
4525;SDS011;2275;52.208;8.804;2022-08-21T14:00:29;6.57;;;3.60;;
4525;SDS011;2275;52.208;8.804;2022-08-21T14:03:02;6.40;;;3.30;;
4525;SDS011;2275;52.208;8.804;2022-08-21T14:05:29;6.80;;;3.67;;
4525;SDS011;2275;52.208;8.804;2022-08-21T14:08:02;5.30;;;3.37;;
4525;SDS011;2275;52.208;8.804;2022-08-21T14:10:27;5.90;;;3.23;;
4525;SDS011;2275;52.208;8.804;2022-08-21T14:12:56;8.13;;;3.33;;
4525;SDS011;2275;52.208;8.804;2022-08-21T14:15:23;6.40;;;3.43;;
4525;SDS011;2275;52.208;8.804;2022-08-21T14:17:50;7.43;;;3.40;;
4525;SDS011;2275;52.208;8.804;2022-08-21T14:22:55;9.13;;;4.57;;
4525;SDS011;2275;52.208;8.804;2022-08-21T14:25:38;7.03;;;3.60;;
4525;SDS011;2275;52.208;8.804;2022-08-21T14:28:12;8.80;;;3.00;;
4525;SDS011;2275;52.208;8.804;2022-08-21T14:30:38;15.23;;;7.17;;
4525;SDS011;2275;52.208;8.804;2022-08-21T14:33:07;5.63;;;3.70;;
4525;SDS011;2275;52.208;8.804;2022-08-21T14:35:33;6.50;;;3.50;;
4525;SDS011;2275;52.208;8.804;2022-08-21T14:38:00;5.67;;;2.63;;
4525;SDS011;2275;52.208;8.804;2022-08-21T14:40:27;9.53;;;3.20;;
4525;SDS011;2275;52.208;8.804;2022-08-21T14:42:54;4.20;;;2.73;;
4525;SDS011;2275;52.208;8.804;2022-08-21T14:45:23;8.10;;;3.07;;
4525;SDS011;2275;52.208;8.804;2022-08-21T14:47:50;4.90;;;2.90;;
4525;SDS011;2275;52.208;8.804;2022-08-21T14:50:17;4.10;;;2.70;;
4525;SDS011;2275;52.208;8.804;2022-08-21T14:52:44;8.60;;;3.40;;
4525;SDS011;2275;52.208;8.804;2022-08-21T14:55:12;6.03;;;3.43;;
4525;SDS011;2275;52.208;8.804;2022-08-21T14:57:41;6.73;;;3.97;;
4525;SDS011;2275;52.208;8.804;2022-08-21T15:00:08;8.13;;;3.20;;
4525;SDS011;2275;52.208;8.804;2022-08-21T15:02:36;4.70;;;3.20;;
4525;SDS011;2275;52.208;8.804;2022-08-21T15:05:03;6.10;;;3.13;;
4525;SDS011;2275;52.208;8.804;2022-08-21T15:07:30;7.67;;;3.20;;
4525;SDS011;2275;52.208;8.804;2022-08-21T15:09:57;6.10;;;2.90;;
4525;SDS011;2275;52.208;8.804;2022-08-21T15:12:24;4.57;;;2.53;;
4525;SDS011;2275;52.208;8.804;2022-08-21T15:14:52;5.00;;;3.00;;
4525;SDS011;2275;52.208;8.804;2022-08-21T15:17:21;6.87;;;2.37;;
4525;SDS011;2275;52.208;8.804;2022-08-21T15:19:48;3.00;;;2.10;;
4525;SDS011;2275;52.208;8.804;2022-08-21T15:22:15;7.30;;;2.43;;
4525;SDS011;2275;52.208;8.804;2022-08-21T15:24:42;4.37;;;2.40;;
4525;SDS011;2275;52.208;8.804;2022-08-21T15:27:09;4.60;;;2.00;;
4525;SDS011;2275;52.208;8.804;2022-08-21T15:29:36;4.53;;;2.00;;
4525;SDS011;2275;52.208;8.804;2022-08-21T15:34:46;5.27;;;2.30;;
4525;SDS011;2275;52.208;8.804;2022-08-21T15:39:57;5.00;;;2.10;;
4525;SDS011;2275;52.208;8.804;2022-08-21T15:42:25;4.47;;;2.40;;
4525;SDS011;2275;52.208;8.804;2022-08-21T15:44:52;8.10;;;2.27;;
4525;SDS011;2275;52.208;8.804;2022-08-21T15:47:20;6.00;;;2.60;;
4525;SDS011;2275;52.208;8.804;2022-08-21T15:49:47;3.87;;;2.20;;
4525;SDS011;2275;52.208;8.804;2022-08-21T15:52:16;2.50;;;2.00;;